< < Back
Terminal Aerodrome Forecast


Current Version              Previous Versions:   1  2  3  4  5  6  7  8  9  

Terminal Aerodrome Forecast

585
FTUS42 KGSP 281131
TAFGSP
TAF
KGSP 281131Z 2812/2912 23008KT P6SM FEW025 SCT060
     FM281500 24011G19KT P6SM VCSH BKN050 PROB30 2821/2824 5SM -TSRA
      OVC040CB
     FM290300 26006KT P6SM FEW060 SCT250
     FM290900 32005KT P6SM FEW250=

Latest METAR

880
SAUS70 KWBC 291600 RRE
MTRGSP
METAR KGSP 291553Z VRB06KT 10SM CLR 27/09 A3002 RMK AO2 SLP153
T02720089


USA.gov is the U.S. government's official web portal to all federal, state and local government web resources and services.